Time;durP1;ratioP1;P1;durP2;ratioP2;P2;SDS_P1;SDS_P2;PMS_P1;PMS_P2;Temp;Humidity;BMP_temperature;BMP_pressure;BME280_temperature;BME280_humidity;BME280_pressure;Samples;Min_cycle;Max_cycle;Signal;HPM_P1;HPM_P2
2020/12/03 00:00:53;;;;;;;1999.90;999.90;;;;;;;-1.45;69.56;97119.06;5093181;28;20489;-70
2020/12/03 00:03:29;;;;;;;1999.90;999.90;;;;;;;-1.29;68.80;97123.72;5092915;28;20106;-71
2020/12/03 00:06:13;;;;;;;1999.90;999.90;;;;;;;-1.29;68.80;97121.13;5093175;28;20123;-70
2020/12/03 00:08:41;;;;;;;1999.90;999.90;;;;;;;-1.16;67.79;97125.13;5092944;28;20488;-70
2020/12/03 00:11:08;;;;;;;1999.90;999.90;;;;;;;-1.48;68.39;97133.09;5093072;28;20109;-70
2020/12/03 00:13:35;;;;;;;1999.90;999.90;;;;;;;-1.46;68.72;97144.16;5091619;28;20394;-71
2020/12/03 00:16:01;;;;;;;1999.90;999.90;;;;;;;-1.34;68.56;97139.69;5092968;28;20051;-70
2020/12/03 00:18:28;;;;;;;1999.90;999.90;;;;;;;-1.26;68.50;97149.38;5092766;28;20051;-70
2020/12/03 00:20:54;;;;;;;1999.90;999.90;;;;;;;-1.21;67.93;97137.66;5092825;28;20052;-70
2020/12/03 00:23:21;;;;;;;1999.90;999.90;;;;;;;-1.21;68.28;97131.69;5092873;28;20040;-71
2020/12/03 00:25:47;;;;;;;1999.90;999.90;;;;;;;-1.14;67.53;97132.75;5092996;28;20044;-71
2020/12/03 00:28:13;;;;;;;1999.90;999.90;;;;;;;-1.24;67.53;97127.56;5092778;28;20127;-70
2020/12/03 00:30:38;;;;;;;1999.90;999.90;;;;;;;-1.19;67.35;97137.53;5092777;28;20549;-70
2020/12/03 00:33:04;;;;;;;1999.90;999.90;;;;;;;-1.12;67.24;97128.28;5092615;28;20057;-70
2020/12/03 00:35:29;;;;;;;1999.90;999.90;;;;;;;-1.15;66.90;97125.97;5092659;28;20079;-71
2020/12/03 00:37:55;;;;;;;1999.90;999.90;;;;;;;-1.15;66.36;97144.09;5092503;28;20059;-71
2020/12/03 00:40:22;;;;;;;1999.90;999.90;;;;;;;-1.08;65.83;97141.78;5092722;28;20048;-71
2020/12/03 00:42:47;;;;;;;1999.90;999.90;;;;;;;-1.21;65.99;97131.69;5095849;28;20040;-71
2020/12/03 00:45:15;;;;;;;1999.90;999.90;;;;;;;-1.23;67.08;97125.78;5096773;28;20462;-71
2020/12/03 00:47:40;;;;;;;1999.90;999.90;;;;;;;-1.14;66.35;97131.94;5096999;28;20135;-70
2020/12/03 00:50:10;;;;;;;1999.90;999.90;;;;;;;-1.22;66.66;97120.47;5096673;28;20136;-70
2020/12/03 00:52:35;;;;;;;1999.90;999.90;;;;;;;-1.18;66.53;97132.22;5103439;28;20051;-70
2020/12/03 00:55:01;;;;;;;1999.90;999.90;;;;;;;-1.09;66.73;97112.47;5096605;28;20131;-71
2020/12/03 00:57:27;;;;;;;1999.90;999.90;;;;;;;-1.25;66.43;97107.81;5096460;28;20071;-71
2020/12/03 00:59:52;;;;;;;1999.90;999.90;;;;;;;-1.20;65.93;97115.19;5096651;28;20394;-71
2020/12/03 01:02:17;;;;;;;1999.90;999.90;;;;;;;-1.29;66.05;97113.38;5096515;28;20063;-71
2020/12/03 01:04:43;;;;;;;1999.90;999.90;;;;;;;-1.31;66.64;97115.28;5096455;28;20429;-71
2020/12/03 01:07:09;;;;;;;1999.90;999.90;;;;;;;-1.51;67.34;97104.88;5096627;28;20059;-70
2020/12/03 01:09:36;;;;;;;1999.90;999.90;;;;;;;-1.28;67.07;97115.84;5096376;28;20059;-70
2020/12/03 01:12:04;;;;;;;1999.90;999.90;;;;;;;-1.48;67.16;97114.97;5096504;28;20051;-70
2020/12/03 01:14:34;;;;;;;1999.90;999.90;;;;;;;-1.62;68.35;97099.81;5096478;28;20417;-70
2020/12/03 01:17:00;;;;;;;1999.90;999.90;;;;;;;-1.52;68.31;97098.06;5095263;28;20050;-70
2020/12/03 01:19:25;;;;;;;1999.90;999.90;;;;;;;-1.60;68.64;97096.13;5096410;28;20131;-70
2020/12/03 01:21:51;;;;;;;1999.90;999.90;;;;;;;-1.47;67.83;97090.72;5096381;28;20071;-71
2020/12/03 01:24:16;;;;;;;1999.90;999.90;;;;;;;-1.57;68.59;97089.88;5095065;28;20044;-70
2020/12/03 01:26:41;;;;;;;1999.90;999.90;;;;;;;-1.77;69.66;97082.06;5096619;28;20101;-70
2020/12/03 01:29:07;;;;;;;1999.90;999.90;;;;;;;-1.83;69.68;97069.63;5096132;28;20044;-70
2020/12/03 01:31:32;;;;;;;1999.90;999.90;;;;;;;-1.63;69.18;97075.72;5096285;28;20109;-70
2020/12/03 01:33:59;;;;;;;1999.90;999.90;;;;;;;-1.54;69.41;97069.72;5096121;28;20109;-70
2020/12/03 01:36:25;;;;;;;1999.90;999.90;;;;;;;-1.47;68.89;97069.22;5096054;28;20536;-70
2020/12/03 01:38:50;;;;;;;1999.90;999.90;;;;;;;-1.53;70.18;97071.38;5096345;28;20040;-70
2020/12/03 01:41:15;;;;;;;1999.90;999.90;;;;;;;-1.44;69.20;97080.09;5096204;28;20508;-70
2020/12/03 01:43:43;;;;;;;1999.90;999.90;;;;;;;-1.48;69.55;97080.50;5096370;28;20078;-70
2020/12/03 01:46:08;;;;;;;1999.90;999.90;;;;;;;-1.43;69.38;97084.31;5096011;28;20044;-70
2020/12/03 01:48:36;;;;;;;1999.90;999.90;;;;;;;-1.30;69.37;97072.91;5095833;28;20059;-70
2020/12/03 01:51:14;;;;;;;1999.90;999.90;;;;;;;-1.49;69.69;97077.09;5095049;28;20044;-70
2020/12/03 01:53:40;;;;;;;1999.90;999.90;;;;;;;-1.37;68.94;97070.03;5094414;28;20040;-70
2020/12/03 01:56:21;;;;;;;1999.90;999.90;;;;;;;-1.34;68.98;97086.13;5095758;28;20511;-70
2020/12/03 01:58:47;;;;;;;1999.90;999.90;;;;;;;-1.41;68.21;97082.44;5095547;28;20506;-70
2020/12/03 02:01:13;;;;;;;1999.90;999.90;;;;;;;-1.33;68.13;97085.16;5096043;28;20047;-70
2020/12/03 02:03:48;;;;;;;1999.90;999.90;;;;;;;-1.47;68.86;97080.38;5095671;28;20036;-70
2020/12/03 02:06:22;;;;;;;1999.90;999.90;;;;;;;-1.46;69.74;97076.84;5095642;28;20048;-70
2020/12/03 02:08:48;;;;;;;1999.90;999.90;;;;;;;-1.35;68.83;97066.38;5102181;28;20050;-70
2020/12/03 02:11:15;;;;;;;1999.90;999.90;;;;;;;-1.34;68.98;97074.94;5095223;28;20040;-71
2020/12/03 02:13:59;;;;;;;1999.90;999.90;;;;;;;-1.37;69.49;97076.03;5102221;28;20044;-70
2020/12/03 02:16:26;;;;;;;1999.90;999.90;;;;;;;-1.41;69.06;97056.53;5095428;28;20104;-70
2020/12/03 02:18:52;;;;;;;1999.90;999.90;;;;;;;-1.27;68.79;97070.03;5095107;28;20100;-71
2020/12/03 02:21:18;;;;;;;1999.90;999.90;;;;;;;-1.37;68.82;97062.28;5095505;28;20443;-71
2020/12/03 02:23:45;;;;;;;1999.90;999.90;;;;;;;-1.31;68.76;97073.84;5095271;28;20052;-70
2020/12/03 02:26:11;;;;;;;1999.90;999.90;;;;;;;-1.22;68.80;97065.28;5095379;28;20128;-71
2020/12/03 02:28:37;;;;;;;1999.90;999.90;;;;;;;-1.12;68.49;97073.88;5095033;28;20524;-71
2020/12/03 02:31:03;;;;;;;1999.90;999.90;;;;;;;-1.50;69.66;97044.41;5095210;28;20122;-71
2020/12/03 02:33:29;;;;;;;1999.90;999.90;;;;;;;-1.31;68.63;97050.56;5094985;28;20040;-71
2020/12/03 02:35:54;;;;;;;1999.90;999.90;;;;;;;-1.43;69.64;97045.50;5095012;28;20408;-71
2020/12/03 02:38:21;;;;;;;1999.90;999.90;;;;;;;-1.35;69.02;97037.88;5094925;28;20141;-71
2020/12/03 02:40:46;;;;;;;1999.90;999.90;;;;;;;-1.40;68.80;97044.41;5101733;28;20413;-70
2020/12/03 02:43:12;;;;;;;1999.90;999.90;;;;;;;-1.33;68.67;97046.31;5095001;28;20101;-70
2020/12/03 02:45:37;;;;;;;1999.90;999.90;;;;;;;-1.26;67.98;97033.66;5094835;28;20090;-70
2020/12/03 02:48:03;;;;;;;1999.90;999.90;;;;;;;-1.21;67.83;97025.50;5094656;28;20066;-70
2020/12/03 02:50:28;;;;;;;1999.90;999.90;;;;;;;-1.18;67.90;97027.78;5094735;28;20104;-70
2020/12/03 02:52:54;;;;;;;1999.90;999.90;;;;;;;-1.22;68.38;97021.25;5094665;28;20048;-70
2020/12/03 02:55:19;;;;;;;1999.90;999.90;;;;;;;-1.13;68.11;97025.63;5094552;28;20060;-70
2020/12/03 02:57:45;;;;;;;1999.90;999.90;;;;;;;-1.26;68.88;97019.91;5094486;28;20052;-70
2020/12/03 03:00:10;;;;;;;1999.90;999.90;;;;;;;-1.25;68.92;97031.91;5094579;28;20080;-71
2020/12/03 03:02:35;;;;;;;1999.90;999.90;;;;;;;-1.19;68.38;97026.16;5094517;28;20040;-70
2020/12/03 03:05:01;;;;;;;1999.90;999.90;;;;;;;-1.11;67.99;97026.31;5094005;28;20111;-71
2020/12/03 03:07:26;;;;;;;1999.90;999.90;;;;;;;-1.18;68.55;97017.44;5094322;28;20048;-70
2020/12/03 03:09:52;;;;;;;1999.90;999.90;;;;;;;-1.18;68.43;97018.28;5094455;28;20047;-70
2020/12/03 03:12:17;;;;;;;1999.90;999.90;;;;;;;-1.18;68.36;97027.78;5093994;28;20131;-70
2020/12/03 03:14:43;;;;;;;1999.90;999.90;;;;;;;-1.11;68.67;97023.72;5093873;28;20056;-70
2020/12/03 03:17:08;;;;;;;1999.90;999.90;;;;;;;-1.06;68.12;97021.53;5093785;28;20139;-70
2020/12/03 03:19:34;;;;;;;1999.90;999.90;;;;;;;-1.08;67.52;97023.44;5093845;28;20047;-70
2020/12/03 03:21:59;;;;;;;1999.90;999.90;;;;;;;-1.13;68.29;97028.22;5093973;28;20056;-70
2020/12/03 03:24:25;;;;;;;1999.90;999.90;;;;;;;-1.21;68.57;97017.72;5093966;28;20505;-70
2020/12/03 03:26:50;;;;;;;1999.90;999.90;;;;;;;-1.18;68.04;97010.50;5093801;28;20052;-70
2020/12/03 03:29:16;;;;;;;1999.90;999.90;;;;;;;-1.14;68.32;97012.81;5092294;28;20087;-70
2020/12/03 03:31:42;;;;;;;1999.90;999.90;;;;;;;-1.16;67.70;97008.56;5093630;28;20048;-70
2020/12/03 03:34:08;;;;;;;1999.90;999.90;;;;;;;-1.11;68.16;96999.56;5093496;28;20098;-70
2020/12/03 03:36:33;;;;;;;1999.90;999.90;;;;;;;-1.14;68.32;96997.25;5093599;28;20059;-70
2020/12/03 03:38:59;;;;;;;1999.90;999.90;;;;;;;-1.28;68.50;96993.31;5093398;28;20096;-71
2020/12/03 03:41:25;;;;;;;1999.90;999.90;;;;;;;-1.05;67.82;96997.28;5093464;28;20044;-70
2020/12/03 03:43:51;;;;;;;1999.90;999.90;;;;;;;-1.23;67.67;96993.72;5093434;28;20394;-70
2020/12/03 03:46:17;;;;;;;1999.90;999.90;;;;;;;-1.24;67.63;96998.09;5093359;28;20058;-71
2020/12/03 03:48:43;;;;;;;1999.90;999.90;;;;;;;-1.27;67.34;96982.81;5100139;28;20433;-70
2020/12/03 03:51:09;;;;;;;1999.90;999.90;;;;;;;-1.12;68.10;96972.88;5093518;28;20048;-71
2020/12/03 03:53:34;;;;;;;1999.90;999.90;;;;;;;-1.17;67.18;96982.81;5093190;28;20433;-70
2020/12/03 03:56:00;;;;;;;1999.90;999.90;;;;;;;-1.24;67.82;96972.19;5093196;28;20044;-70
2020/12/03 03:58:26;;;;;;;1999.90;999.90;;;;;;;-1.14;67.38;96987.72;5092997;28;20463;-70
2020/12/03 04:00:52;;;;;;;1999.90;999.90;;;;;;;-1.11;67.40;96981.44;5093340;28;20044;-70
2020/12/03 04:03:20;;;;;;;1999.90;999.90;;;;;;;-1.29;67.71;96969.19;5093113;28;20509;-71
2020/12/03 04:05:48;;;;;;;1999.90;999.90;;;;;;;-1.23;67.58;96965.22;5093116;28;20565;-70
2020/12/03 04:08:15;;;;;;;1999.90;999.90;;;;;;;-1.13;67.28;96979.00;5092913;28;20040;-71
2020/12/03 04:10:42;;;;;;;1999.90;999.90;;;;;;;-1.07;67.66;96972.47;5093022;28;20040;-71
2020/12/03 04:13:09;;;;;;;1999.90;999.90;;;;;;;-1.03;66.63;96972.03;5091748;28;20043;-71
2020/12/03 04:15:35;;;;;;;1999.90;999.90;;;;;;;-1.04;66.55;96972.97;5093269;28;20039;-71
2020/12/03 04:18:00;;;;;;;1999.90;999.90;;;;;;;-1.13;66.93;96973.81;5092809;28;20047;-71
2020/12/03 04:20:26;;;;;;;1999.90;999.90;;;;;;;-1.07;66.26;96968.09;5093155;28;20101;-70
2020/12/03 04:22:51;;;;;;;1999.90;999.90;;;;;;;-1.09;66.14;96969.97;5093096;28;20123;-70
2020/12/03 04:25:17;;;;;;;1999.90;999.90;;;;;;;-1.11;66.97;96968.50;5093110;28;20062;-70
2020/12/03 04:27:42;;;;;;;1999.90;999.90;;;;;;;-1.07;66.78;96967.28;5093178;28;20040;-70
2020/12/03 04:30:10;;;;;;;1999.90;999.90;;;;;;;-1.08;67.25;96958.69;5092984;28;20044;-70
2020/12/03 04:32:36;;;;;;;1999.90;999.90;;;;;;;-1.18;67.36;96965.63;5093013;28;20048;-71
2020/12/03 04:35:02;;;;;;;1999.90;999.90;;;;;;;-1.20;67.50;96962.38;5092932;28;20044;-71
2020/12/03 04:37:27;;;;;;;1999.90;999.90;;;;;;;-1.13;67.48;96966.03;5092934;28;20132;-70
2020/12/03 04:39:53;;;;;;;1999.90;999.90;;;;;;;-1.05;66.69;96970.53;5092992;28;20102;-70
2020/12/03 04:42:28;;;;;;;1999.90;999.90;;;;;;;-1.03;66.73;96984.19;5092781;28;20075;-71
2020/12/03 04:44:57;;;;;;;1999.90;999.90;;;;;;;-1.16;67.03;96976.69;5092936;28;20074;-71
2020/12/03 04:47:47;;;;;;;1999.90;999.90;;;;;;;-1.11;66.76;96979.69;5092872;28;20519;-70
2020/12/03 04:50:21;;;;;;;1999.90;999.90;;;;;;;-1.06;66.02;96977.50;5092065;28;20379;-70
2020/12/03 04:53:04;;;;;;;1999.90;999.90;;;;;;;-1.20;66.40;96977.91;5099423;28;20071;-71
2020/12/03 04:55:52;;;;;;;1999.90;999.90;;;;;;;-1.09;66.01;96990.72;5092758;28;20052;-71
2020/12/03 04:58:39;;;;;;;1999.90;999.90;;;;;;;-1.20;65.94;96998.63;5092693;28;20052;-71
2020/12/03 05:01:29;;;;;;;1999.90;999.90;;;;;;;-1.17;66.04;96982.81;5092858;28;20055;-71
2020/12/03 05:04:11;;;;;;;1999.90;999.90;;;;;;;-1.15;65.06;96991.28;5092775;28;20577;-71
2020/12/03 05:06:47;;;;;;;1999.90;999.90;;;;;;;-1.41;66.66;96981.47;5092947;28;20050;-70
2020/12/03 05:09:24;;;;;;;1999.90;999.90;;;;;;;-1.25;66.51;96990.47;5092789;28;20109;-70
2020/12/03 05:12:04;;;;;;;1999.90;999.90;;;;;;;-1.31;66.63;96978.84;5093542;28;20048;-70
2020/12/03 05:15:05;;;;;;;1999.90;999.90;;;;;;;-1.38;66.43;96995.91;5072325;28;20057;-71
2020/12/03 05:17:47;;;;;;;1999.90;999.90;;;;;;;-1.41;67.33;96991.81;5068535;28;20044;-70
2020/12/03 05:20:27;;;;;;;1999.90;999.90;;;;;;;-1.65;68.38;96994.78;5076089;28;20570;-71
2020/12/03 05:23:34;;;;;;;1999.90;999.90;;;;;;;-1.53;67.88;96978.19;5081894;28;20050;-70
2020/12/03 05:26:03;;;;;;;1999.90;999.90;;;;;;;-1.53;67.87;96992.88;5089542;28;20055;-70
2020/12/03 05:28:36;;;;;;;1999.90;999.90;;;;;;;-1.52;67.53;96984.16;5117482;27;20040;-70
2020/12/03 05:31:10;;;;;;;1999.90;999.90;;;;;;;-1.51;68.90;96993.56;5096290;28;20044;-69
2020/12/03 05:33:35;;;;;;;1999.90;999.90;;;;;;;-1.51;69.05;96985.81;5096331;28;20075;-70
2020/12/03 05:36:01;;;;;;;1999.90;999.90;;;;;;;-1.64;68.99;96985.22;5096249;28;20080;-70
2020/12/03 05:38:27;;;;;;;1999.90;999.90;;;;;;;-1.54;68.83;96986.91;5095938;28;20048;-71
2020/12/03 05:40:55;;;;;;;1999.90;999.90;;;;;;;-1.52;69.19;96974.63;5111233;28;20044;-70
2020/12/03 05:43:21;;;;;;;1999.90;999.90;;;;;;;-1.45;68.84;96980.09;5116569;28;20081;-70
2020/12/03 05:45:47;;;;;;;1999.90;999.90;;;;;;;-1.42;68.41;96979.00;5116480;28;20044;-70
2020/12/03 05:48:17;;;;;;;1999.90;999.90;;;;;;;-1.43;68.92;96975.59;5116280;28;20047;-70
2020/12/03 05:50:43;;;;;;;1999.90;999.90;;;;;;;-1.39;68.77;96971.78;5116288;28;20040;-70
2020/12/03 05:53:08;;;;;;;1999.90;999.90;;;;;;;-1.40;68.22;96983.09;5116307;28;20374;-70
2020/12/03 05:55:34;;;;;;;1999.90;999.90;;;;;;;-1.29;67.97;96973.53;5116294;27;20051;-70
2020/12/03 05:58:27;;;;;;;1999.90;999.90;;;;;;;-1.25;67.56;96974.91;5116219;28;20067;-70
2020/12/03 06:01:24;;;;;;;1999.90;999.90;;;;;;;-1.16;67.95;96989.63;5116109;28;20050;-70
2020/12/03 06:04:07;;;;;;;1999.90;999.90;;;;;;;-1.12;68.00;96970.28;5114422;28;20134;-70
2020/12/03 06:07:06;;;;;;;1999.90;999.90;;;;;;;-1.09;67.77;96988.13;5116266;27;20434;-70
2020/12/03 06:09:59;;;;;;;1999.90;999.90;;;;;;;-1.06;67.54;96990.44;5116004;28;20049;-70
2020/12/03 06:13:01;;;;;;;1999.90;999.90;;;;;;;-1.15;67.25;96975.75;5115614;28;20096;-70
2020/12/03 06:16:04;;;;;;;1999.90;999.90;;;;;;;-1.10;67.35;96986.50;5115455;28;20056;-70
2020/12/03 06:18:36;;;;;;;1999.90;999.90;;;;;;;-1.06;68.04;96961.97;5052274;28;20111;-70
2020/12/03 06:21:23;;;;;;;1999.90;999.90;;;;;;;-1.19;67.26;96979.53;5052458;28;20083;-70
2020/12/03 06:24:03;;;;;;;1999.90;999.90;;;;;;;-1.25;66.36;96978.31;5052443;28;20044;-70
2020/12/03 06:26:46;;;;;;;1999.90;999.90;;;;;;;-1.20;66.70;96972.75;5052323;28;20060;-70
2020/12/03 06:29:33;;;;;;;1999.90;999.90;;;;;;;-1.10;66.30;96977.91;5052237;28;20055;-70
2020/12/03 06:31:58;;;;;;;;;;;;;;;-1.20;66.85;96985.69;5052796;28;20616;-70
2020/12/03 06:34:46;;;;;;;1999.90;999.90;;;;;;;-1.26;66.95;97004.34;5052188;28;20014;-70
2020/12/03 06:37:26;;;;;;;1999.90;999.90;;;;;;;-1.30;67.47;97000.41;5052190;28;20594;-70
2020/12/03 06:40:04;;;;;;;1999.90;999.90;;;;;;;-1.28;68.02;96998.47;5051373;28;20052;-70
2020/12/03 06:42:40;;;;;;;1999.90;999.90;;;;;;;-1.38;67.82;97001.88;5052095;28;20045;-70
2020/12/03 06:45:26;;;;;;;1999.90;999.90;;;;;;;-1.44;68.04;97002.41;5051857;28;20496;-70
2020/12/03 06:48:37;;;;;;;1999.90;999.90;;;;;;;-1.54;68.37;97001.59;5012149;28;20139;-70
2020/12/03 06:51:46;;;;;;;1999.90;999.90;;;;;;;-1.66;69.53;97003.50;5008930;28;20048;-70
2020/12/03 06:54:33;;;;;;;1999.90;999.90;;;;;;;-1.52;69.72;96997.13;5006672;28;20052;-70
2020/12/03 06:57:15;;;;;;;1999.90;999.90;;;;;;;-1.65;69.02;96989.59;5031875;28;20126;-70
2020/12/03 07:00:09;;;;;;;1999.90;999.90;;;;;;;-1.77;69.20;97001.84;5031739;28;20060;-70
2020/12/03 07:02:53;;;;;;;1999.90;999.90;;;;;;;-1.64;69.98;96996.41;5031776;28;20152;-70
2020/12/03 07:05:36;;;;;;;1999.90;999.90;;;;;;;-1.56;68.59;96999.16;5031571;28;20049;-70
2020/12/03 07:08:34;;;;;;;1999.90;999.90;;;;;;;-1.47;68.14;97000.13;5031600;28;20056;-70
2020/12/03 07:11:40;;;;;;;1999.90;999.90;;;;;;;-1.76;69.35;97000.91;4972657;28;20166;-70
2020/12/03 07:14:24;;;;;;;1999.90;999.90;;;;;;;-1.62;69.35;97004.03;4934015;29;20071;-70
2020/12/03 07:17:11;;;;;;;1999.90;999.90;;;;;;;-1.55;68.99;96999.97;4934178;29;20044;-70
2020/12/03 07:20:09;;;;;;;1999.90;999.90;;;;;;;-1.61;69.76;97001.31;4934228;29;20048;-70
2020/12/03 07:22:46;;;;;;;1999.90;999.90;;;;;;;-1.53;69.81;97016.19;4934115;29;20040;-70
2020/12/03 07:25:15;;;;;;;1999.90;999.90;;;;;;;-1.34;69.01;97013.59;4979266;28;20049;-70
2020/12/03 07:27:56;;;;;;;1999.90;999.90;;;;;;;-1.39;69.07;97004.63;5011350;28;20053;-70
2020/12/03 07:30:33;;;;;;;1999.90;999.90;;;;;;;-1.31;68.25;97016.91;5011487;28;20054;-70
2020/12/03 07:33:01;;;;;;;1999.90;999.90;;;;;;;-1.60;69.49;96997.78;5011485;28;20052;-70
2020/12/03 07:35:45;;;;;;;1999.90;999.90;;;;;;;-1.54;68.95;97019.72;5011411;28;20049;-70
2020/12/03 07:38:41;;;;;;;1999.90;999.90;;;;;;;-1.43;69.73;97011.84;5011067;28;20050;-70
2020/12/03 07:41:14;;;;;;;1999.90;999.90;;;;;;;-1.56;68.98;97019.03;5011207;28;20438;-70
2020/12/03 07:43:39;;;;;;;1999.90;999.90;;;;;;;-1.42;69.72;97005.72;5011275;28;20551;-70
2020/12/03 07:46:28;;;;;;;1999.90;999.90;;;;;;;-1.31;69.31;97015.09;5011237;28;20065;-70
2020/12/03 07:48:54;;;;;;;1999.90;999.90;;;;;;;-1.25;69.43;97006.81;5041538;28;20080;-70
2020/12/03 07:51:20;;;;;;;1999.90;999.90;;;;;;;-1.21;68.88;97007.34;5105856;27;20101;-70
2020/12/03 07:53:46;;;;;;;1999.90;999.90;;;;;;;-1.46;69.90;97009.53;5113599;28;20056;-70
2020/12/03 07:56:26;;;;;;;1999.90;999.90;;;;;;;-1.20;69.68;97006.41;5113635;28;20458;-70
2020/12/03 07:58:53;;;;;;;1999.90;999.90;;;;;;;-1.21;69.44;97002.19;5113874;28;20416;-70
2020/12/03 08:01:21;;;;;;;1999.90;999.90;;;;;;;-1.29;70.23;97004.59;5113543;28;20504;-70
2020/12/03 08:03:48;;;;;;;1999.90;999.90;;;;;;;-1.59;71.30;97006.34;5113435;28;20564;-70
2020/12/03 08:06:16;;;;;;;1999.90;999.90;;;;;;;-1.49;70.83;96994.25;5113590;27;20580;-70
2020/12/03 08:09:09;;;;;;;1999.90;999.90;;;;;;;-1.41;70.82;96994.41;5113464;28;20134;-70
2020/12/03 08:11:57;;;;;;;1999.90;999.90;;;;;;;-1.54;71.32;97001.59;5112991;28;20055;-70
2020/12/03 08:14:28;;;;;;;1999.90;999.90;;;;;;;-1.28;70.52;96995.91;5113424;28;20063;-70
2020/12/03 08:16:56;;;;;;;1999.90;999.90;;;;;;;-1.31;69.77;97001.34;5113260;28;20498;-70
2020/12/03 08:19:29;;;;;;;1999.90;999.90;;;;;;;-1.48;70.91;96993.28;5113361;28;20055;-70
2020/12/03 08:21:55;;;;;;;1999.90;999.90;;;;;;;-1.28;70.80;96995.91;5113289;28;20051;-70
2020/12/03 08:24:32;;;;;;;1999.90;999.90;;;;;;;-1.30;71.31;96990.06;5113200;28;20047;-70
2020/12/03 08:26:58;;;;;;;1999.90;999.90;;;;;;;-1.26;71.17;96978.47;5113126;28;20047;-70
2020/12/03 08:29:43;;;;;;;1999.90;999.90;;;;;;;-1.20;70.79;96991.69;5113256;28;20130;-70
2020/12/03 08:32:09;;;;;;;1999.90;999.90;;;;;;;-1.11;70.70;96986.63;5113188;28;20051;-70
2020/12/03 08:34:36;;;;;;;1999.90;999.90;;;;;;;-1.06;70.76;96987.84;5113099;28;20057;-70
2020/12/03 08:37:03;;;;;;;1999.90;999.90;;;;;;;-0.91;70.88;96990.03;5113125;28;20051;-70
2020/12/03 08:39:30;;;;;;;1999.90;999.90;;;;;;;-0.98;70.22;96994.09;5113012;28;20097;-70
2020/12/03 08:41:56;;;;;;;1999.90;999.90;;;;;;;-0.86;70.06;96995.59;5113112;28;20047;-70
2020/12/03 08:44:23;;;;;;;1999.90;999.90;;;;;;;-0.65;70.19;96986.84;5112910;28;20417;-70
2020/12/03 08:46:50;;;;;;;1999.90;999.90;;;;;;;-0.88;70.57;96995.75;5112914;28;20043;-70
2020/12/03 08:49:23;;;;;;;1999.90;999.90;;;;;;;-0.74;70.27;96993.69;5112982;28;20048;-70
2020/12/03 08:51:55;;;;;;;1999.90;999.90;;;;;;;-0.69;69.58;96976.75;5113218;28;20046;-70
2020/12/03 08:54:29;;;;;;;1999.90;999.90;;;;;;;-0.50;69.24;96981.06;5113193;28;20496;-70
2020/12/03 08:57:11;;;;;;;1999.90;999.90;;;;;;;-0.48;69.80;96983.50;5112801;28;20044;-70
2020/12/03 08:59:44;;;;;;;1999.90;999.90;;;;;;;-0.43;68.93;96990.88;5112938;28;20591;-70
2020/12/03 09:02:10;;;;;;;1999.90;999.90;;;;;;;-0.39;68.31;96982.69;5113173;28;20048;-70
2020/12/03 09:04:38;;;;;;;1999.90;999.90;;;;;;;-0.41;69.25;96976.81;5117248;28;20077;-70
2020/12/03 09:07:09;;;;;;;1999.90;999.90;;;;;;;-0.44;69.43;96990.06;5116829;27;20086;-70
2020/12/03 09:09:41;;;;;;;1999.90;999.90;;;;;;;-0.35;68.97;96989.22;5117254;28;20458;-70
2020/12/03 09:12:09;;;;;;;1999.90;999.90;;;;;;;-0.29;68.00;96987.00;5116736;28;20096;-70
2020/12/03 09:14:36;;;;;;;1999.90;999.90;;;;;;;-0.47;68.55;96979.97;5117016;28;20048;-70
2020/12/03 09:17:08;;;;;;;1999.90;999.90;;;;;;;-0.41;69.13;96979.41;5115765;28;20044;-70
2020/12/03 09:19:33;;;;;;;1999.90;999.90;;;;;;;-0.49;69.13;96971.53;5117054;28;20520;-70
2020/12/03 09:21:59;;;;;;;1999.90;999.90;;;;;;;-0.33;68.72;96981.28;5116896;28;20047;-70
2020/12/03 09:24:26;;;;;;;1999.90;999.90;;;;;;;-0.41;68.88;96979.41;5117126;28;20066;-70
2020/12/03 09:26:54;;;;;;;1999.90;999.90;;;;;;;-0.38;68.88;96989.47;5116741;28;20035;-70
2020/12/03 09:29:20;;;;;;;1999.90;999.90;;;;;;;-0.38;68.00;96973.91;5116778;28;20040;-70
2020/12/03 09:31:46;;;;;;;1999.90;999.90;;;;;;;-0.25;67.53;96967.59;5116744;28;20458;-70
2020/12/03 09:34:14;;;;;;;1999.90;999.90;;;;;;;-0.34;68.08;96964.91;5116661;28;20035;-70
2020/12/03 09:36:40;;;;;;;1999.90;999.90;;;;;;;-0.34;68.30;96964.91;5116535;28;20136;-70
2020/12/03 09:39:06;;;;;;;1999.90;999.90;;;;;;;-0.34;68.12;96949.34;5116689;28;20040;-70
2020/12/03 09:41:33;;;;;;;1999.90;999.90;;;;;;;-0.42;68.27;96946.66;5116534;28;20063;-70
2020/12/03 09:44:05;;;;;;;1999.90;999.90;;;;;;;-0.42;68.45;96945.84;5116639;28;20119;-70
2020/12/03 09:46:34;;;;;;;1999.90;999.90;;;;;;;-0.44;68.42;96946.00;5114838;28;20081;-70
2020/12/03 09:49:00;;;;;;;1999.90;999.90;;;;;;;-0.45;68.67;96939.16;5116093;28;20069;-70
2020/12/03 09:51:26;;;;;;;1999.90;999.90;;;;;;;-0.48;69.46;96942.03;5114863;28;20047;-71
2020/12/03 09:53:52;;;;;;;1999.90;999.90;;;;;;;-0.51;70.25;96926.75;5115938;28;20047;-70
2020/12/03 09:56:18;;;;;;;1999.90;999.90;;;;;;;-0.51;70.46;96924.97;5114534;28;20507;-70
2020/12/03 09:58:43;;;;;;;1999.90;999.90;;;;;;;-0.58;70.01;96925.69;5114534;28;20040;-70
2020/12/03 10:01:11;;;;;;;1999.90;999.90;;;;;;;-0.67;70.75;96919.59;5115853;28;20051;-70
2020/12/03 10:03:51;;;;;;;1999.90;999.90;;;;;;;-0.41;70.31;96924.94;5115917;28;20200;-70
2020/12/03 10:06:55;;;;;;;1999.90;999.90;;;;;;;-0.38;69.39;96913.47;5114284;28;20046;-70
2020/12/03 10:09:44;;;;;;;1999.90;999.90;;;;;;;-0.31;69.41;96916.31;5035913;28;20049;-70
2020/12/03 10:12:54;;;;;;;1999.90;999.90;;;;;;;-0.40;68.76;96912.78;5052586;28;20049;-70
2020/12/03 10:15:33;;;;;;;1999.90;999.90;;;;;;;-0.26;68.60;96911.50;5051639;28;20049;-70
2020/12/03 10:18:12;;;;;;;1999.90;999.90;;;;;;;-0.31;69.51;96908.53;5052632;28;20048;-70
2020/12/03 10:20:38;;;;;;;1999.90;999.90;;;;;;;-0.21;69.13;96909.28;5052971;28;20041;-71
2020/12/03 10:23:20;;;;;;;1999.90;999.90;;;;;;;-0.08;68.78;96925.34;5052989;28;20138;-70
2020/12/03 10:25:58;;;;;;;1999.90;999.90;;;;;;;-0.15;68.76;96923.47;5052685;28;20049;-70
2020/12/03 10:28:29;;;;;;;1999.90;999.90;;;;;;;-0.19;68.73;96920.34;5035910;28;20072;-70
2020/12/03 10:30:55;;;;;;;1999.90;999.90;;;;;;;-0.16;69.15;96925.22;5052552;28;20041;-70
2020/12/03 10:33:26;;;;;;;1999.90;999.90;;;;;;;-0.23;69.46;96922.41;5052631;28;20049;-70
2020/12/03 10:35:57;;;;;;;1999.90;999.90;;;;;;;-0.80;70.99;96916.47;5052529;28;20106;-70
2020/12/03 10:38:32;;;;;;;1999.90;999.90;;;;;;;-0.71;71.30;96919.06;5052391;28;20045;-70
2020/12/03 10:40:59;;;;;;;1999.90;999.90;;;;;;;-0.47;70.49;96917.72;5052404;28;20083;-70
2020/12/03 10:43:31;;;;;;;1999.90;999.90;;;;;;;-0.35;70.60;96918.34;5087747;28;20043;-70
2020/12/03 10:45:59;;;;;;;1999.90;999.90;;;;;;;-0.21;70.46;96912.72;5115305;27;20473;-70
2020/12/03 10:48:34;;;;;;;1999.90;999.90;;;;;;;-0.21;70.53;96901.50;5115227;27;20039;-70
2020/12/03 10:51:04;;;;;;;1999.90;999.90;;;;;;;-0.18;70.46;96911.59;5115262;28;20130;-70
2020/12/03 10:53:32;;;;;;;1999.90;999.90;;;;;;;-0.37;70.93;96902.16;5115115;28;20047;-70
2020/12/03 10:56:03;;;;;;;1999.90;999.90;;;;;;;-0.31;70.18;96911.13;5115355;28;20039;-70
2020/12/03 10:59:03;;;;;;;1999.90;999.90;;;;;;;-0.20;70.62;96910.94;5114974;28;20039;-71
2020/12/03 11:01:32;;;;;;;1999.90;999.90;;;;;;;-0.12;70.06;96898.03;5114859;28;20047;-70
2020/12/03 11:04:03;;;;;;;1999.90;999.90;;;;;;;-0.14;70.74;96897.38;5115024;28;20096;-70
2020/12/03 11:06:30;;;;;;;1999.90;999.90;;;;;;;-0.31;71.50;96900.75;5114930;28;20112;-70
2020/12/03 11:08:57;;;;;;;1999.90;999.90;;;;;;;-0.23;70.41;96885.28;5114870;28;20054;-70
2020/12/03 11:11:23;;;;;;;1999.90;999.90;;;;;;;-0.21;71.07;96881.59;5114860;28;20416;-70
2020/12/03 11:13:49;;;;;;;1999.90;999.90;;;;;;;-0.20;70.58;96882.41;5114340;28;20051;-70
2020/12/03 11:16:17;;;;;;;1999.90;999.90;;;;;;;-0.19;70.19;96871.06;5114336;28;20092;-70